sensor_id;sensor_type;location;lat;lon;timestamp;pressure;altitude;pressure_sealevel;temperature;humidity
10948;BME280;5526;42.070;24.752;2022-07-22T00:01:38;98894.78;;;24.10;62.14
10948;BME280;5526;42.070;24.752;2022-07-22T00:04:05;98892.81;;;24.07;62.70
10948;BME280;5526;42.070;24.752;2022-07-22T00:06:32;98896.19;;;24.04;63.39
10948;BME280;5526;42.070;24.752;2022-07-22T00:08:58;98897.53;;;23.98;63.82
10948;BME280;5526;42.070;24.752;2022-07-22T00:11:27;98896.00;;;23.97;64.38
10948;BME280;5526;42.070;24.752;2022-07-22T00:13:54;98902.94;;;23.98;64.65
10948;BME280;5526;42.070;24.752;2022-07-22T00:16:21;98903.97;;;23.93;65.00
10948;BME280;5526;42.070;24.752;2022-07-22T00:18:48;98898.03;;;23.88;65.25
10948;BME280;5526;42.070;24.752;2022-07-22T00:21:15;98912.47;;;23.83;65.32
10948;BME280;5526;42.070;24.752;2022-07-22T00:23:41;98914.97;;;23.76;66.04
10948;BME280;5526;42.070;24.752;2022-07-22T00:26:09;98908.28;;;23.70;66.61
10948;BME280;5526;42.070;24.752;2022-07-22T00:28:37;98905.47;;;23.67;67.24
10948;BME280;5526;42.070;24.752;2022-07-22T00:31:05;98897.91;;;23.57;67.55
10948;BME280;5526;42.070;24.752;2022-07-22T00:33:32;98904.84;;;23.58;67.83
10948;BME280;5526;42.070;24.752;2022-07-22T00:35:59;98912.09;;;23.57;68.09
10948;BME280;5526;42.070;24.752;2022-07-22T00:38:26;98917.06;;;23.55;68.72
10948;BME280;5526;42.070;24.752;2022-07-22T00:40:53;98913.91;;;23.53;68.84
10948;BME280;5526;42.070;24.752;2022-07-22T00:43:20;98914.91;;;23.61;68.61
10948;BME280;5526;42.070;24.752;2022-07-22T00:45:48;98910.13;;;23.54;68.78
10948;BME280;5526;42.070;24.752;2022-07-22T00:48:15;98908.91;;;23.52;68.63
10948;BME280;5526;42.070;24.752;2022-07-22T00:50:42;98905.31;;;23.48;68.76
10948;BME280;5526;42.070;24.752;2022-07-22T00:53:09;98910.03;;;23.39;69.74
10948;BME280;5526;42.070;24.752;2022-07-22T00:55:37;98902.56;;;23.32;70.24
10948;BME280;5526;42.070;24.752;2022-07-22T00:58:04;98903.56;;;23.28;70.67
10948;BME280;5526;42.070;24.752;2022-07-22T01:00:31;98910.06;;;23.27;70.68
10948;BME280;5526;42.070;24.752;2022-07-22T01:03:00;98907.03;;;23.28;70.57
10948;BME280;5526;42.070;24.752;2022-07-22T01:05:27;98909.81;;;23.32;70.02
10948;BME280;5526;42.070;24.752;2022-07-22T01:07:54;98908.38;;;23.22;70.56
10948;BME280;5526;42.070;24.752;2022-07-22T01:10:21;98911.41;;;23.21;70.34
10948;BME280;5526;42.070;24.752;2022-07-22T01:12:48;98909.81;;;23.20;70.77
10948;BME280;5526;42.070;24.752;2022-07-22T01:15:15;98910.38;;;23.13;71.43
10948;BME280;5526;42.070;24.752;2022-07-22T01:17:42;98914.63;;;23.14;72.01
10948;BME280;5526;42.070;24.752;2022-07-22T01:20:11;98915.66;;;23.10;72.61
10948;BME280;5526;42.070;24.752;2022-07-22T01:22:38;98920.22;;;23.09;72.59
10948;BME280;5526;42.070;24.752;2022-07-22T01:25:05;98916.66;;;23.05;72.84
10948;BME280;5526;42.070;24.752;2022-07-22T01:27:32;98916.53;;;23.02;73.35
10948;BME280;5526;42.070;24.752;2022-07-22T01:29:59;98919.31;;;23.05;73.51
10948;BME280;5526;42.070;24.752;2022-07-22T01:32:26;98916.88;;;23.00;73.98
10948;BME280;5526;42.070;24.752;2022-07-22T01:34:53;98921.22;;;22.93;74.07
10948;BME280;5526;42.070;24.752;2022-07-22T01:37:22;98918.44;;;22.89;74.44
10948;BME280;5526;42.070;24.752;2022-07-22T01:39:49;98916.66;;;22.81;74.39
10948;BME280;5526;42.070;24.752;2022-07-22T01:42:16;98918.22;;;22.82;73.86
10948;BME280;5526;42.070;24.752;2022-07-22T01:44:43;98902.09;;;22.70;74.36
10948;BME280;5526;42.070;24.752;2022-07-22T01:47:10;98912.16;;;22.73;74.40
10948;BME280;5526;42.070;24.752;2022-07-22T01:49:37;98909.91;;;22.75;74.71
10948;BME280;5526;42.070;24.752;2022-07-22T01:52:05;98896.88;;;22.74;74.65
10948;BME280;5526;42.070;24.752;2022-07-22T01:54:34;98909.25;;;22.78;74.48
10948;BME280;5526;42.070;24.752;2022-07-22T01:57:01;98908.81;;;22.76;74.60
10948;BME280;5526;42.070;24.752;2022-07-22T01:59:28;98912.84;;;22.70;74.95
10948;BME280;5526;42.070;24.752;2022-07-22T02:01:55;98900.53;;;22.69;75.13
10948;BME280;5526;42.070;24.752;2022-07-22T02:04:22;98895.19;;;22.69;75.13
10948;BME280;5526;42.070;24.752;2022-07-22T02:06:49;98899.66;;;22.65;75.47
10948;BME280;5526;42.070;24.752;2022-07-22T02:09:16;98906.13;;;22.64;75.05
10948;BME280;5526;42.070;24.752;2022-07-22T02:11:44;98909.25;;;22.66;75.71
10948;BME280;5526;42.070;24.752;2022-07-22T02:14:11;98905.69;;;22.62;75.47
10948;BME280;5526;42.070;24.752;2022-07-22T02:16:38;98908.25;;;22.59;75.24
10948;BME280;5526;42.070;24.752;2022-07-22T02:19:05;98903.09;;;22.54;75.71
10948;BME280;5526;42.070;24.752;2022-07-22T02:21:32;98902.41;;;22.57;75.04
10948;BME280;5526;42.070;24.752;2022-07-22T02:23:59;98902.66;;;22.52;74.73
10948;BME280;5526;42.070;24.752;2022-07-22T02:26:26;98905.34;;;22.52;74.76
10948;BME280;5526;42.070;24.752;2022-07-22T02:28:55;98896.69;;;22.46;74.83
10948;BME280;5526;42.070;24.752;2022-07-22T02:31:22;98902.28;;;22.41;75.29
10948;BME280;5526;42.070;24.752;2022-07-22T02:33:49;98906.03;;;22.40;75.73
10948;BME280;5526;42.070;24.752;2022-07-22T02:36:16;98898.69;;;22.37;75.45
10948;BME280;5526;42.070;24.752;2022-07-22T02:38:43;98900.81;;;22.44;75.34
10948;BME280;5526;42.070;24.752;2022-07-22T02:41:10;98892.63;;;22.40;75.76
10948;BME280;5526;42.070;24.752;2022-07-22T02:43:37;98891.41;;;22.38;75.71
10948;BME280;5526;42.070;24.752;2022-07-22T02:46:05;98889.06;;;22.36;75.34
10948;BME280;5526;42.070;24.752;2022-07-22T02:48:32;98888.94;;;22.33;74.99
10948;BME280;5526;42.070;24.752;2022-07-22T02:50:59;98887.72;;;22.30;75.14
10948;BME280;5526;42.070;24.752;2022-07-22T02:53:27;98888.50;;;22.31;75.02
10948;BME280;5526;42.070;24.752;2022-07-22T02:55:54;98887.25;;;22.28;75.25
10948;BME280;5526;42.070;24.752;2022-07-22T02:58:21;98879.22;;;22.28;75.12
10948;BME280;5526;42.070;24.752;2022-07-22T03:00:49;98877.66;;;22.27;74.86
10948;BME280;5526;42.070;24.752;2022-07-22T03:03:17;98881.88;;;22.28;74.61
10948;BME280;5526;42.070;24.752;2022-07-22T03:05:44;98881.13;;;22.28;74.28
10948;BME280;5526;42.070;24.752;2022-07-22T03:08:11;98885.25;;;22.25;72.96
10948;BME280;5526;42.070;24.752;2022-07-22T03:10:38;98891.72;;;22.24;72.51
10948;BME280;5526;42.070;24.752;2022-07-22T03:13:05;98881.78;;;22.25;72.56
10948;BME280;5526;42.070;24.752;2022-07-22T03:15:32;98886.81;;;22.26;72.74
10948;BME280;5526;42.070;24.752;2022-07-22T03:17:59;98891.72;;;22.24;72.91
10948;BME280;5526;42.070;24.752;2022-07-22T03:20:27;98900.25;;;22.38;72.90
10948;BME280;5526;42.070;24.752;2022-07-22T03:22:54;98893.75;;;22.39;73.01
10948;BME280;5526;42.070;24.752;2022-07-22T03:25:21;98898.97;;;22.56;72.33
10948;BME280;5526;42.070;24.752;2022-07-22T03:27:48;98893.94;;;22.67;71.53
10948;BME280;5526;42.070;24.752;2022-07-22T03:30:15;98887.69;;;22.75;71.05
10948;BME280;5526;42.070;24.752;2022-07-22T03:32:42;98894.19;;;22.86;71.03
10948;BME280;5526;42.070;24.752;2022-07-22T03:35:12;98901.44;;;22.97;70.82
10948;BME280;5526;42.070;24.752;2022-07-22T03:37:40;98901.66;;;23.16;69.41
10948;BME280;5526;42.070;24.752;2022-07-22T03:40:08;98902.00;;;23.27;68.87
10948;BME280;5526;42.070;24.752;2022-07-22T03:42:36;98905.88;;;23.41;68.36
10948;BME280;5526;42.070;24.752;2022-07-22T03:45:03;98913.91;;;23.53;68.22
10948;BME280;5526;42.070;24.752;2022-07-22T03:47:30;98905.09;;;23.53;68.35
10948;BME280;5526;42.070;24.752;2022-07-22T03:49:57;98915.69;;;23.61;67.96
10948;BME280;5526;42.070;24.752;2022-07-22T03:52:24;98915.88;;;23.68;67.67
10948;BME280;5526;42.070;24.752;2022-07-22T03:54:53;98911.84;;;23.74;67.41
10948;BME280;5526;42.070;24.752;2022-07-22T03:57:20;98916.84;;;23.88;66.89
10948;BME280;5526;42.070;24.752;2022-07-22T03:59:47;98918.53;;;23.80;66.49
10948;BME280;5526;42.070;24.752;2022-07-22T04:02:14;98918.63;;;23.96;65.46
10948;BME280;5526;42.070;24.752;2022-07-22T04:04:41;98918.66;;;24.11;64.73
10948;BME280;5526;42.070;24.752;2022-07-22T04:07:08;98918.25;;;24.25;64.14
10948;BME280;5526;42.070;24.752;2022-07-22T04:09:35;98928.34;;;24.28;63.65
10948;BME280;5526;42.070;24.752;2022-07-22T04:12:04;98926.66;;;24.23;62.59
10948;BME280;5526;42.070;24.752;2022-07-22T04:14:31;98923.34;;;24.14;62.59
10948;BME280;5526;42.070;24.752;2022-07-22T04:16:58;98909.38;;;24.09;62.43
10948;BME280;5526;42.070;24.752;2022-07-22T04:19:25;98920.25;;;24.28;62.14
10948;BME280;5526;42.070;24.752;2022-07-22T04:21:52;98924.09;;;24.42;61.29
10948;BME280;5526;42.070;24.752;2022-07-22T04:24:19;98915.13;;;24.66;60.64
10948;BME280;5526;42.070;24.752;2022-07-22T04:26:46;98923.34;;;24.73;60.15
10948;BME280;5526;42.070;24.752;2022-07-22T04:29:14;98917.63;;;24.75;60.18
10948;BME280;5526;42.070;24.752;2022-07-22T04:31:41;98923.09;;;24.63;60.46
10948;BME280;5526;42.070;24.752;2022-07-22T04:34:08;98915.06;;;24.50;60.84
10948;BME280;5526;42.070;24.752;2022-07-22T04:36:35;98920.84;;;24.65;60.17
10948;BME280;5526;42.070;24.752;2022-07-22T04:39:02;98928.28;;;24.55;60.35
10948;BME280;5526;42.070;24.752;2022-07-22T04:41:29;98921.16;;;24.47;60.61
10948;BME280;5526;42.070;24.752;2022-07-22T04:43:56;98921.19;;;24.79;59.77
10948;BME280;5526;42.070;24.752;2022-07-22T04:46:24;98919.81;;;24.69;60.57
10948;BME280;5526;42.070;24.752;2022-07-22T04:48:51;98925.28;;;24.88;60.25
10948;BME280;5526;42.070;24.752;2022-07-22T04:51:18;98932.56;;;25.19;59.49
10948;BME280;5526;42.070;24.752;2022-07-22T04:53:45;98930.88;;;25.30;59.04
10948;BME280;5526;42.070;24.752;2022-07-22T04:56:12;98933.69;;;25.33;59.05
10948;BME280;5526;42.070;24.752;2022-07-22T04:58:39;98935.28;;;25.38;58.55
10948;BME280;5526;42.070;24.752;2022-07-22T05:01:06;98927.59;;;25.55;57.23
10948;BME280;5526;42.070;24.752;2022-07-22T05:03:37;98939.34;;;25.82;56.14
10948;BME280;5526;42.070;24.752;2022-07-22T05:06:04;98942.09;;;25.32;57.73
10948;BME280;5526;42.070;24.752;2022-07-22T05:08:31;98930.59;;;25.69;56.94
10948;BME280;5526;42.070;24.752;2022-07-22T05:10:58;98940.34;;;25.74;56.10
10948;BME280;5526;42.070;24.752;2022-07-22T05:13:25;98939.91;;;25.72;56.55
10948;BME280;5526;42.070;24.752;2022-07-22T05:15:52;98946.97;;;26.14;55.18
10948;BME280;5526;42.070;24.752;2022-07-22T05:18:19;98953.91;;;26.34;54.06
10948;BME280;5526;42.070;24.752;2022-07-22T05:20:47;98940.69;;;26.29;53.25
10948;BME280;5526;42.070;24.752;2022-07-22T05:23:14;98947.97;;;26.48;53.46
10948;BME280;5526;42.070;24.752;2022-07-22T05:25:41;98936.72;;;26.65;52.22
10948;BME280;5526;42.070;24.752;2022-07-22T05:28:08;98938.59;;;26.42;52.71
10948;BME280;5526;42.070;24.752;2022-07-22T05:30:35;98936.00;;;26.68;52.09
10948;BME280;5526;42.070;24.752;2022-07-22T05:33:02;98931.47;;;26.72;51.84
10948;BME280;5526;42.070;24.752;2022-07-22T05:35:29;98932.13;;;26.65;51.75
10948;BME280;5526;42.070;24.752;2022-07-22T05:37:57;98935.31;;;26.71;51.17
10948;BME280;5526;42.070;24.752;2022-07-22T05:40:24;98924.69;;;27.07;50.56
10948;BME280;5526;42.070;24.752;2022-07-22T05:42:51;98924.91;;;27.47;48.72
10948;BME280;5526;42.070;24.752;2022-07-22T05:45:18;98923.19;;;27.62;47.76
10948;BME280;5526;42.070;24.752;2022-07-22T05:47:45;98928.88;;;27.05;49.04
10948;BME280;5526;42.070;24.752;2022-07-22T05:50:12;98921.00;;;27.19;48.42
10948;BME280;5526;42.070;24.752;2022-07-22T05:52:39;98928.50;;;27.29;47.74
10948;BME280;5526;42.070;24.752;2022-07-22T05:55:08;98926.69;;;27.36;47.33
10948;BME280;5526;42.070;24.752;2022-07-22T05:57:35;98920.56;;;27.69;47.03
10948;BME280;5526;42.070;24.752;2022-07-22T06:00:03;98920.34;;;28.14;45.86
10948;BME280;5526;42.070;24.752;2022-07-22T06:02:30;98917.53;;;28.40;45.20
10948;BME280;5526;42.070;24.752;2022-07-22T06:04:57;98923.38;;;28.09;45.01
10948;BME280;5526;42.070;24.752;2022-07-22T06:07:25;98912.84;;;27.71;46.91
10948;BME280;5526;42.070;24.752;2022-07-22T06:09:53;98920.81;;;28.23;45.57
10948;BME280;5526;42.070;24.752;2022-07-22T06:12:21;98913.03;;;28.51;44.31
10948;BME280;5526;42.070;24.752;2022-07-22T06:14:48;98915.38;;;28.20;44.97
10948;BME280;5526;42.070;24.752;2022-07-22T06:17:15;98912.00;;;28.30;45.03
10948;BME280;5526;42.070;24.752;2022-07-22T06:19:42;98912.94;;;28.44;45.30
10948;BME280;5526;42.070;24.752;2022-07-22T06:22:09;98920.97;;;28.37;45.17
10948;BME280;5526;42.070;24.752;2022-07-22T06:24:36;98908.94;;;28.71;44.53
10948;BME280;5526;42.070;24.752;2022-07-22T06:27:03;98907.59;;;28.98;43.70
10948;BME280;5526;42.070;24.752;2022-07-22T06:29:32;98920.00;;;28.52;43.19
10948;BME280;5526;42.070;24.752;2022-07-22T06:31:58;98921.00;;;28.81;43.88
10948;BME280;5526;42.070;24.752;2022-07-22T06:34:26;98915.09;;;29.12;43.42
10948;BME280;5526;42.070;24.752;2022-07-22T06:36:52;98925.41;;;28.99;43.85
10948;BME280;5526;42.070;24.752;2022-07-22T06:39:19;98912.00;;;28.70;44.22
10948;BME280;5526;42.070;24.752;2022-07-22T06:41:47;98917.00;;;29.11;43.73
10948;BME280;5526;42.070;24.752;2022-07-22T06:44:13;98912.38;;;29.15;43.31
10948;BME280;5526;42.070;24.752;2022-07-22T06:46:42;98903.06;;;29.13;43.03
10948;BME280;5526;42.070;24.752;2022-07-22T06:49:10;98909.03;;;29.43;42.67
10948;BME280;5526;42.070;24.752;2022-07-22T06:51:37;98907.16;;;29.50;42.57
10948;BME280;5526;42.070;24.752;2022-07-22T06:54:04;98906.22;;;29.93;42.09
10948;BME280;5526;42.070;24.752;2022-07-22T06:56:31;98912.91;;;30.24;41.52
10948;BME280;5526;42.070;24.752;2022-07-22T06:58:58;98915.81;;;29.77;42.22
10948;BME280;5526;42.070;24.752;2022-07-22T07:01:25;98917.84;;;29.94;41.93
10948;BME280;5526;42.070;24.752;2022-07-22T07:03:54;98924.94;;;30.33;41.37
10948;BME280;5526;42.070;24.752;2022-07-22T07:06:20;98932.34;;;30.36;41.22
10948;BME280;5526;42.070;24.752;2022-07-22T07:08:47;98917.59;;;30.48;41.91
10948;BME280;5526;42.070;24.752;2022-07-22T07:11:14;98933.94;;;31.21;40.07
10948;BME280;5526;42.070;24.752;2022-07-22T07:13:41;98924.59;;;31.33;39.24
10948;BME280;5526;42.070;24.752;2022-07-22T07:16:08;98928.06;;;31.51;39.27
10948;BME280;5526;42.070;24.752;2022-07-22T07:18:35;98927.28;;;31.50;39.05
10948;BME280;5526;42.070;24.752;2022-07-22T07:21:05;98926.53;;;31.22;39.36
10948;BME280;5526;42.070;24.752;2022-07-22T07:23:32;98930.03;;;31.22;39.34
10948;BME280;5526;42.070;24.752;2022-07-22T07:25:59;98916.41;;;31.50;38.65
10948;BME280;5526;42.070;24.752;2022-07-22T07:28:26;98921.03;;;31.57;38.64
10948;BME280;5526;42.070;24.752;2022-07-22T07:30:53;98921.69;;;31.96;38.07
10948;BME280;5526;42.070;24.752;2022-07-22T07:33:20;98923.28;;;31.87;37.92
10948;BME280;5526;42.070;24.752;2022-07-22T07:35:47;98925.63;;;31.81;37.50
10948;BME280;5526;42.070;24.752;2022-07-22T07:38:15;98920.16;;;31.95;37.84
10948;BME280;5526;42.070;24.752;2022-07-22T07:40:42;98915.69;;;32.26;37.53
10948;BME280;5526;42.070;24.752;2022-07-22T07:43:09;98915.94;;;32.49;37.17
10948;BME280;5526;42.070;24.752;2022-07-22T07:45:36;98918.31;;;32.47;36.71
10948;BME280;5526;42.070;24.752;2022-07-22T07:48:03;98921.25;;;32.70;36.69
10948;BME280;5526;42.070;24.752;2022-07-22T07:50:30;98925.38;;;32.37;36.90
10948;BME280;5526;42.070;24.752;2022-07-22T07:52:58;98912.00;;;32.60;36.39
10948;BME280;5526;42.070;24.752;2022-07-22T07:55:27;98916.47;;;32.81;35.54
10948;BME280;5526;42.070;24.752;2022-07-22T07:57:54;98920.38;;;32.87;35.77
10948;BME280;5526;42.070;24.752;2022-07-22T08:00:24;98915.44;;;33.12;35.12
10948;BME280;5526;42.070;24.752;2022-07-22T08:02:53;98914.00;;;33.00;35.89
10948;BME280;5526;42.070;24.752;2022-07-22T08:05:21;98912.13;;;33.31;35.39
10948;BME280;5526;42.070;24.752;2022-07-22T08:07:49;98916.06;;;33.30;35.21
10948;BME280;5526;42.070;24.752;2022-07-22T08:10:17;98911.56;;;33.50;34.66
10948;BME280;5526;42.070;24.752;2022-07-22T08:12:45;98911.72;;;33.69;34.53
10948;BME280;5526;42.070;24.752;2022-07-22T08:15:12;98915.91;;;33.44;34.75
10948;BME280;5526;42.070;24.752;2022-07-22T08:17:39;98906.69;;;33.31;35.25
10948;BME280;5526;42.070;24.752;2022-07-22T08:20:07;98906.72;;;33.27;34.99
10948;BME280;5526;42.070;24.752;2022-07-22T08:22:35;98900.50;;;33.64;34.81
10948;BME280;5526;42.070;24.752;2022-07-22T08:25:02;98898.31;;;33.85;34.26
10948;BME280;5526;42.070;24.752;2022-07-22T08:27:29;98891.75;;;33.76;34.87
10948;BME280;5526;42.070;24.752;2022-07-22T08:29:57;98899.97;;;33.72;34.59
10948;BME280;5526;42.070;24.752;2022-07-22T08:32:24;98896.72;;;33.84;33.98
10948;BME280;5526;42.070;24.752;2022-07-22T08:34:51;98905.22;;;33.93;34.55
10948;BME280;5526;42.070;24.752;2022-07-22T08:37:18;98902.34;;;34.04;34.32
10948;BME280;5526;42.070;24.752;2022-07-22T08:39:46;98896.88;;;34.04;34.34
10948;BME280;5526;42.070;24.752;2022-07-22T08:42:12;98900.41;;;34.27;33.35
10948;BME280;5526;42.070;24.752;2022-07-22T08:44:40;98898.47;;;34.54;33.05
10948;BME280;5526;42.070;24.752;2022-07-22T08:47:08;98900.00;;;34.82;33.13
10948;BME280;5526;42.070;24.752;2022-07-22T08:49:35;98901.97;;;34.02;32.83
10948;BME280;5526;42.070;24.752;2022-07-22T08:52:02;98900.00;;;34.29;33.57
10948;BME280;5526;42.070;24.752;2022-07-22T08:54:29;98900.09;;;34.52;33.03
10948;BME280;5526;42.070;24.752;2022-07-22T08:56:56;98897.34;;;34.52;32.78
10948;BME280;5526;42.070;24.752;2022-07-22T08:59:24;98904.13;;;34.67;32.37
10948;BME280;5526;42.070;24.752;2022-07-22T09:02:05;98895.84;;;34.21;33.27
10948;BME280;5526;42.070;24.752;2022-07-22T09:04:50;98898.66;;;34.14;32.48
10948;BME280;5526;42.070;24.752;2022-07-22T09:07:23;98901.94;;;34.58;31.85
10948;BME280;5526;42.070;24.752;2022-07-22T09:09:50;98903.38;;;35.13;31.85
10948;BME280;5526;42.070;24.752;2022-07-22T09:12:17;98912.00;;;34.88;32.18
10948;BME280;5526;42.070;24.752;2022-07-22T09:14:45;98900.44;;;35.23;31.14
10948;BME280;5526;42.070;24.752;2022-07-22T09:17:22;98897.69;;;35.23;30.48
10948;BME280;5526;42.070;24.752;2022-07-22T09:19:51;98898.88;;;35.45;30.70
10948;BME280;5526;42.070;24.752;2022-07-22T09:22:35;98901.91;;;35.51;29.37
10948;BME280;5526;42.070;24.752;2022-07-22T09:25:24;98902.66;;;35.71;29.65
10948;BME280;5526;42.070;24.752;2022-07-22T09:27:54;98894.50;;;35.67;30.17
10948;BME280;5526;42.070;24.752;2022-07-22T09:30:23;98904.41;;;35.42;30.00
10948;BME280;5526;42.070;24.752;2022-07-22T09:32:52;98897.72;;;34.54;30.95
10948;BME280;5526;42.070;24.752;2022-07-22T09:35:21;98900.22;;;34.68;30.28
10948;BME280;5526;42.070;24.752;2022-07-22T09:37:50;98897.69;;;34.80;30.41
10948;BME280;5526;42.070;24.752;2022-07-22T09:40:19;98893.66;;;34.88;29.56
10948;BME280;5526;42.070;24.752;2022-07-22T09:42:48;98890.59;;;35.06;30.01
10948;BME280;5526;42.070;24.752;2022-07-22T09:45:17;98887.84;;;35.29;29.06
10948;BME280;5526;42.070;24.752;2022-07-22T09:47:44;98896.91;;;35.65;28.51
10948;BME280;5526;42.070;24.752;2022-07-22T09:50:19;98889.97;;;35.41;28.92
10948;BME280;5526;42.070;24.752;2022-07-22T09:52:49;98888.69;;;35.65;28.39
10948;BME280;5526;42.070;24.752;2022-07-22T09:55:18;98882.63;;;35.93;28.63
10948;BME280;5526;42.070;24.752;2022-07-22T09:57:46;98877.06;;;36.32;28.46
10948;BME280;5526;42.070;24.752;2022-07-22T10:00:15;98871.41;;;36.39;28.62
10948;BME280;5526;42.070;24.752;2022-07-22T10:02:46;98885.13;;;36.55;28.36
10948;BME280;5526;42.070;24.752;2022-07-22T10:05:14;98876.16;;;36.87;27.72
10948;BME280;5526;42.070;24.752;2022-07-22T10:07:44;98876.53;;;37.01;27.01
10948;BME280;5526;42.070;24.752;2022-07-22T10:10:14;98879.81;;;36.80;27.50
10948;BME280;5526;42.070;24.752;2022-07-22T10:12:42;98869.44;;;37.32;27.79
10948;BME280;5526;42.070;24.752;2022-07-22T10:15:10;98869.50;;;37.57;26.74
10948;BME280;5526;42.070;24.752;2022-07-22T10:17:39;98864.75;;;37.17;27.17
10948;BME280;5526;42.070;24.752;2022-07-22T10:20:08;98875.84;;;36.97;27.05
10948;BME280;5526;42.070;24.752;2022-07-22T10:22:55;98857.91;;;37.37;28.20
10948;BME280;5526;42.070;24.752;2022-07-22T10:25:29;98858.13;;;37.71;27.15
10948;BME280;5526;42.070;24.752;2022-07-22T10:27:58;98862.78;;;37.46;27.32
10948;BME280;5526;42.070;24.752;2022-07-22T10:30:27;98858.50;;;37.57;26.03
10948;BME280;5526;42.070;24.752;2022-07-22T10:33:08;98858.44;;;37.61;26.46
10948;BME280;5526;42.070;24.752;2022-07-22T10:35:36;98852.75;;;36.50;27.10
10948;BME280;5526;42.070;24.752;2022-07-22T10:38:05;98861.28;;;36.68;27.78
10948;BME280;5526;42.070;24.752;2022-07-22T10:40:48;98852.47;;;36.77;27.99
10948;BME280;5526;42.070;24.752;2022-07-22T10:43:16;98853.59;;;37.24;26.95
10948;BME280;5526;42.070;24.752;2022-07-22T10:45:46;98859.66;;;37.72;26.49
10948;BME280;5526;42.070;24.752;2022-07-22T10:48:19;98860.97;;;37.27;27.22
10948;BME280;5526;42.070;24.752;2022-07-22T10:50:54;98858.22;;;36.82;26.39
10948;BME280;5526;42.070;24.752;2022-07-22T10:53:24;98844.56;;;37.23;26.71
10948;BME280;5526;42.070;24.752;2022-07-22T10:56:01;98852.97;;;37.32;26.03
10948;BME280;5526;42.070;24.752;2022-07-22T10:58:51;98857.47;;;37.67;25.67
10948;BME280;5526;42.070;24.752;2022-07-22T11:01:21;98858.66;;;37.09;26.74
10948;BME280;5526;42.070;24.752;2022-07-22T11:03:49;98851.41;;;37.31;26.74
10948;BME280;5526;42.070;24.752;2022-07-22T11:06:19;98855.47;;;37.27;26.48
10948;BME280;5526;42.070;24.752;2022-07-22T11:08:48;98853.63;;;37.77;26.24
10948;BME280;5526;42.070;24.752;2022-07-22T11:11:17;98843.19;;;38.48;25.69
10948;BME280;5526;42.070;24.752;2022-07-22T11:13:44;98845.56;;;38.71;25.67
10948;BME280;5526;42.070;24.752;2022-07-22T11:16:19;98846.50;;;38.89;24.72
10948;BME280;5526;42.070;24.752;2022-07-22T11:18:48;98832.78;;;38.77;25.20
10948;BME280;5526;42.070;24.752;2022-07-22T11:21:16;98845.34;;;38.78;25.46
10948;BME280;5526;42.070;24.752;2022-07-22T11:23:44;98829.06;;;38.71;24.97
10948;BME280;5526;42.070;24.752;2022-07-22T11:26:14;98834.78;;;38.64;25.05
10948;BME280;5526;42.070;24.752;2022-07-22T11:28:44;98841.00;;;38.55;25.60
10948;BME280;5526;42.070;24.752;2022-07-22T11:31:14;98836.13;;;38.47;25.13
10948;BME280;5526;42.070;24.752;2022-07-22T11:33:42;98836.50;;;38.83;25.28
10948;BME280;5526;42.070;24.752;2022-07-22T11:36:09;98839.56;;;38.97;25.24
10948;BME280;5526;42.070;24.752;2022-07-22T11:38:45;98833.56;;;38.65;25.32
10948;BME280;5526;42.070;24.752;2022-07-22T11:41:12;98826.28;;;38.83;25.63
10948;BME280;5526;42.070;24.752;2022-07-22T11:43:40;98831.50;;;39.03;25.29
10948;BME280;5526;42.070;24.752;2022-07-22T11:46:09;98829.47;;;39.16;25.16
10948;BME280;5526;42.070;24.752;2022-07-22T11:48:40;98830.03;;;39.11;23.97
10948;BME280;5526;42.070;24.752;2022-07-22T11:51:07;98824.91;;;39.00;24.18
10948;BME280;5526;42.070;24.752;2022-07-22T11:53:36;98824.59;;;38.86;23.72
10948;BME280;5526;42.070;24.752;2022-07-22T11:56:05;98817.88;;;39.21;24.16
10948;BME280;5526;42.070;24.752;2022-07-22T11:58:38;98827.34;;;38.98;24.66
10948;BME280;5526;42.070;24.752;2022-07-22T12:01:06;98822.94;;;38.88;24.64
10948;BME280;5526;42.070;24.752;2022-07-22T12:03:37;98816.59;;;39.13;25.07
10948;BME280;5526;42.070;24.752;2022-07-22T12:06:06;98814.38;;;39.08;24.78
10948;BME280;5526;42.070;24.752;2022-07-22T12:08:38;98817.69;;;39.37;24.13
10948;BME280;5526;42.070;24.752;2022-07-22T12:11:06;98812.91;;;39.59;23.53
10948;BME280;5526;42.070;24.752;2022-07-22T12:13:33;98810.28;;;39.34;23.42
10948;BME280;5526;42.070;24.752;2022-07-22T12:16:16;98819.22;;;39.38;23.29
10948;BME280;5526;42.070;24.752;2022-07-22T12:18:50;98807.75;;;39.39;22.13
10948;BME280;5526;42.070;24.752;2022-07-22T12:21:18;98806.84;;;39.42;23.72
10948;BME280;5526;42.070;24.752;2022-07-22T12:23:50;98799.56;;;39.79;23.19
10948;BME280;5526;42.070;24.752;2022-07-22T12:26:17;98793.22;;;40.09;22.76
10948;BME280;5526;42.070;24.752;2022-07-22T12:28:44;98803.38;;;40.21;22.66
10948;BME280;5526;42.070;24.752;2022-07-22T12:31:11;98797.22;;;40.17;22.65
10948;BME280;5526;42.070;24.752;2022-07-22T12:33:48;98791.16;;;40.22;22.33
10948;BME280;5526;42.070;24.752;2022-07-22T12:36:15;98792.53;;;40.26;22.22
10948;BME280;5526;42.070;24.752;2022-07-22T12:38:42;98787.53;;;40.61;21.53
10948;BME280;5526;42.070;24.752;2022-07-22T12:41:23;98787.38;;;40.64;21.21
10948;BME280;5526;42.070;24.752;2022-07-22T12:43:51;98798.44;;;40.16;21.26
10948;BME280;5526;42.070;24.752;2022-07-22T12:46:18;98780.91;;;39.83;21.21
10948;BME280;5526;42.070;24.752;2022-07-22T12:48:50;98786.47;;;39.70;20.37
10948;BME280;5526;42.070;24.752;2022-07-22T12:51:18;98789.19;;;39.92;20.55
10948;BME280;5526;42.070;24.752;2022-07-22T12:53:45;98780.13;;;39.82;21.06
10948;BME280;5526;42.070;24.752;2022-07-22T12:56:12;98785.81;;;39.88;20.78
10948;BME280;5526;42.070;24.752;2022-07-22T12:58:39;98784.56;;;39.80;20.35
10948;BME280;5526;42.070;24.752;2022-07-22T13:01:07;98776.75;;;39.87;20.09
10948;BME280;5526;42.070;24.752;2022-07-22T13:03:35;98783.56;;;39.74;20.58
10948;BME280;5526;42.070;24.752;2022-07-22T13:06:05;98786.78;;;40.03;20.36